sensor_id;sensor_type;location;lat;lon;timestamp;P1;durP1;ratioP1;P2;durP2;ratioP2
81056;SDS011;70563;50.084;14.468;2023-06-10T00:00:45;25.75;;;14.50;;
81056;SDS011;70563;50.084;14.468;2023-06-10T00:03:11;26.50;;;13.95;;
81056;SDS011;70563;50.084;14.468;2023-06-10T00:05:37;29.13;;;15.00;;
81056;SDS011;70563;50.084;14.468;2023-06-10T00:08:04;24.45;;;14.02;;
81056;SDS011;70563;50.084;14.468;2023-06-10T00:10:34;26.30;;;13.77;;
81056;SDS011;70563;50.084;14.468;2023-06-10T00:13:00;27.13;;;14.43;;
81056;SDS011;70563;50.084;14.468;2023-06-10T00:15:27;27.17;;;14.98;;
81056;SDS011;70563;50.084;14.468;2023-06-10T00:17:53;22.88;;;13.00;;
81056;SDS011;70563;50.084;14.468;2023-06-10T00:20:20;25.63;;;14.98;;
81056;SDS011;70563;50.084;14.468;2023-06-10T00:22:51;30.90;;;15.40;;
81056;SDS011;70563;50.084;14.468;2023-06-10T00:25:17;27.88;;;14.43;;
81056;SDS011;70563;50.084;14.468;2023-06-10T00:27:42;29.45;;;16.02;;
81056;SDS011;70563;50.084;14.468;2023-06-10T00:30:08;25.92;;;14.57;;
81056;SDS011;70563;50.084;14.468;2023-06-10T00:32:34;29.38;;;15.45;;
81056;SDS011;70563;50.084;14.468;2023-06-10T00:35:01;35.72;;;16.13;;
81056;SDS011;70563;50.084;14.468;2023-06-10T00:37:26;39.90;;;17.67;;
81056;SDS011;70563;50.084;14.468;2023-06-10T00:39:53;62.97;;;22.25;;
81056;SDS011;70563;50.084;14.468;2023-06-10T00:42:19;67.13;;;23.63;;
81056;SDS011;70563;50.084;14.468;2023-06-10T00:44:44;28.58;;;14.80;;
81056;SDS011;70563;50.084;14.468;2023-06-10T00:47:10;25.95;;;14.30;;
81056;SDS011;70563;50.084;14.468;2023-06-10T00:49:35;27.05;;;14.45;;
81056;SDS011;70563;50.084;14.468;2023-06-10T00:52:01;23.73;;;13.52;;
81056;SDS011;70563;50.084;14.468;2023-06-10T00:54:29;33.15;;;15.00;;
81056;SDS011;70563;50.084;14.468;2023-06-10T00:56:55;35.95;;;15.48;;
81056;SDS011;70563;50.084;14.468;2023-06-10T00:59:21;32.58;;;16.58;;
81056;SDS011;70563;50.084;14.468;2023-06-10T01:01:47;25.67;;;14.40;;
81056;SDS011;70563;50.084;14.468;2023-06-10T01:04:12;28.52;;;15.35;;
81056;SDS011;70563;50.084;14.468;2023-06-10T01:14:35;23.50;;;13.55;;
81056;SDS011;70563;50.084;14.468;2023-06-10T01:17:01;23.02;;;13.23;;
81056;SDS011;70563;50.084;14.468;2023-06-10T01:19:28;25.17;;;12.90;;
81056;SDS011;70563;50.084;14.468;2023-06-10T01:21:56;24.23;;;13.38;;
81056;SDS011;70563;50.084;14.468;2023-06-10T01:24:25;19.48;;;11.88;;
81056;SDS011;70563;50.084;14.468;2023-06-10T01:26:51;23.20;;;13.07;;
81056;SDS011;70563;50.084;14.468;2023-06-10T01:29:24;21.15;;;13.60;;
81056;SDS011;70563;50.084;14.468;2023-06-10T01:32:23;23.55;;;13.52;;
81056;SDS011;70563;50.084;14.468;2023-06-10T01:34:54;22.75;;;12.80;;
81056;SDS011;70563;50.084;14.468;2023-06-10T01:37:21;29.55;;;15.85;;
81056;SDS011;70563;50.084;14.468;2023-06-10T01:39:49;36.08;;;15.30;;
81056;SDS011;70563;50.084;14.468;2023-06-10T01:42:16;34.72;;;18.05;;
81056;SDS011;70563;50.084;14.468;2023-06-10T01:44:42;39.70;;;17.38;;
81056;SDS011;70563;50.084;14.468;2023-06-10T01:47:08;43.58;;;16.35;;
81056;SDS011;70563;50.084;14.468;2023-06-10T01:49:34;28.27;;;13.93;;
81056;SDS011;70563;50.084;14.468;2023-06-10T01:51:59;31.05;;;14.57;;
81056;SDS011;70563;50.084;14.468;2023-06-10T01:54:25;27.48;;;14.10;;
81056;SDS011;70563;50.084;14.468;2023-06-10T01:56:50;23.95;;;13.43;;
81056;SDS011;70563;50.084;14.468;2023-06-10T01:59:16;29.65;;;13.57;;
81056;SDS011;70563;50.084;14.468;2023-06-10T02:01:42;25.77;;;13.43;;
81056;SDS011;70563;50.084;14.468;2023-06-10T02:04:07;31.38;;;13.68;;
81056;SDS011;70563;50.084;14.468;2023-06-10T02:06:32;29.15;;;14.75;;
81056;SDS011;70563;50.084;14.468;2023-06-10T02:08:59;27.90;;;15.18;;
81056;SDS011;70563;50.084;14.468;2023-06-10T02:11:24;33.70;;;15.07;;
81056;SDS011;70563;50.084;14.468;2023-06-10T02:13:51;31.35;;;14.80;;
81056;SDS011;70563;50.084;14.468;2023-06-10T02:16:17;33.45;;;15.93;;
81056;SDS011;70563;50.084;14.468;2023-06-10T02:18:43;40.53;;;16.05;;
81056;SDS011;70563;50.084;14.468;2023-06-10T02:21:09;39.42;;;17.40;;
81056;SDS011;70563;50.084;14.468;2023-06-10T02:23:34;25.35;;;13.48;;
81056;SDS011;70563;50.084;14.468;2023-06-10T02:26:00;24.08;;;13.10;;
81056;SDS011;70563;50.084;14.468;2023-06-10T02:28:25;25.10;;;12.63;;
81056;SDS011;70563;50.084;14.468;2023-06-10T02:30:51;23.17;;;13.25;;
81056;SDS011;70563;50.084;14.468;2023-06-10T02:33:17;23.48;;;13.98;;
81056;SDS011;70563;50.084;14.468;2023-06-10T02:35:42;27.50;;;14.38;;
81056;SDS011;70563;50.084;14.468;2023-06-10T02:38:08;22.77;;;12.38;;
81056;SDS011;70563;50.084;14.468;2023-06-10T02:40:33;33.22;;;15.32;;
81056;SDS011;70563;50.084;14.468;2023-06-10T02:42:59;28.35;;;14.63;;
81056;SDS011;70563;50.084;14.468;2023-06-10T02:45:24;47.53;;;19.30;;
81056;SDS011;70563;50.084;14.468;2023-06-10T02:47:50;76.25;;;28.17;;
81056;SDS011;70563;50.084;14.468;2023-06-10T02:50:15;73.93;;;27.02;;
81056;SDS011;70563;50.084;14.468;2023-06-10T02:52:41;78.38;;;27.17;;
81056;SDS011;70563;50.084;14.468;2023-06-10T02:55:06;59.63;;;25.50;;
81056;SDS011;70563;50.084;14.468;2023-06-10T02:57:32;47.72;;;19.98;;
81056;SDS011;70563;50.084;14.468;2023-06-10T02:59:57;52.63;;;23.08;;
81056;SDS011;70563;50.084;14.468;2023-06-10T03:02:23;45.92;;;19.58;;
81056;SDS011;70563;50.084;14.468;2023-06-10T03:04:56;49.20;;;22.58;;
81056;SDS011;70563;50.084;14.468;2023-06-10T03:07:21;32.72;;;16.20;;
81056;SDS011;70563;50.084;14.468;2023-06-10T03:09:46;37.28;;;18.45;;
81056;SDS011;70563;50.084;14.468;2023-06-10T03:12:12;37.35;;;18.40;;
81056;SDS011;70563;50.084;14.468;2023-06-10T03:14:37;41.92;;;18.80;;
81056;SDS011;70563;50.084;14.468;2023-06-10T03:17:04;41.58;;;18.63;;
81056;SDS011;70563;50.084;14.468;2023-06-10T03:19:30;32.83;;;17.42;;
81056;SDS011;70563;50.084;14.468;2023-06-10T03:22:09;31.27;;;17.17;;
81056;SDS011;70563;50.084;14.468;2023-06-10T03:24:35;39.97;;;20.38;;
81056;SDS011;70563;50.084;14.468;2023-06-10T03:27:01;45.75;;;21.20;;
81056;SDS011;70563;50.084;14.468;2023-06-10T03:29:29;43.90;;;20.48;;
81056;SDS011;70563;50.084;14.468;2023-06-10T03:31:55;35.72;;;17.38;;
81056;SDS011;70563;50.084;14.468;2023-06-10T03:34:21;36.50;;;18.38;;
81056;SDS011;70563;50.084;14.468;2023-06-10T03:36:48;37.83;;;20.13;;
81056;SDS011;70563;50.084;14.468;2023-06-10T03:39:13;35.20;;;17.65;;
81056;SDS011;70563;50.084;14.468;2023-06-10T03:41:39;36.22;;;17.77;;
81056;SDS011;70563;50.084;14.468;2023-06-10T03:44:04;35.85;;;18.60;;
81056;SDS011;70563;50.084;14.468;2023-06-10T03:46:29;35.22;;;17.65;;
81056;SDS011;70563;50.084;14.468;2023-06-10T03:48:55;39.33;;;19.77;;
81056;SDS011;70563;50.084;14.468;2023-06-10T03:51:21;36.95;;;19.08;;
81056;SDS011;70563;50.084;14.468;2023-06-10T03:53:46;36.65;;;18.20;;
81056;SDS011;70563;50.084;14.468;2023-06-10T03:56:11;35.83;;;19.25;;
81056;SDS011;70563;50.084;14.468;2023-06-10T03:58:37;31.38;;;17.42;;
81056;SDS011;70563;50.084;14.468;2023-06-10T04:01:02;30.98;;;16.42;;
81056;SDS011;70563;50.084;14.468;2023-06-10T04:03:27;31.90;;;16.70;;
81056;SDS011;70563;50.084;14.468;2023-06-10T04:05:53;29.90;;;16.92;;
81056;SDS011;70563;50.084;14.468;2023-06-10T04:08:19;32.47;;;17.23;;
81056;SDS011;70563;50.084;14.468;2023-06-10T04:10:45;37.38;;;17.45;;
81056;SDS011;70563;50.084;14.468;2023-06-10T04:13:11;33.05;;;17.30;;
81056;SDS011;70563;50.084;14.468;2023-06-10T04:15:36;30.17;;;17.38;;
81056;SDS011;70563;50.084;14.468;2023-06-10T04:18:01;32.42;;;16.33;;
81056;SDS011;70563;50.084;14.468;2023-06-10T04:20:27;31.00;;;16.48;;
81056;SDS011;70563;50.084;14.468;2023-06-10T04:22:53;30.63;;;16.50;;
81056;SDS011;70563;50.084;14.468;2023-06-10T04:25:18;29.17;;;16.88;;
81056;SDS011;70563;50.084;14.468;2023-06-10T04:27:44;27.00;;;14.93;;
81056;SDS011;70563;50.084;14.468;2023-06-10T04:30:09;28.27;;;18.05;;
81056;SDS011;70563;50.084;14.468;2023-06-10T04:32:35;27.90;;;18.45;;
81056;SDS011;70563;50.084;14.468;2023-06-10T04:35:00;36.85;;;19.95;;
81056;SDS011;70563;50.084;14.468;2023-06-10T04:37:26;29.20;;;16.48;;
81056;SDS011;70563;50.084;14.468;2023-06-10T04:39:51;23.70;;;15.43;;
81056;SDS011;70563;50.084;14.468;2023-06-10T04:42:16;24.33;;;14.07;;
81056;SDS011;70563;50.084;14.468;2023-06-10T04:44:42;21.15;;;14.30;;
81056;SDS011;70563;50.084;14.468;2023-06-10T04:47:08;25.00;;;16.73;;
81056;SDS011;70563;50.084;14.468;2023-06-10T04:49:34;29.10;;;18.02;;
81056;SDS011;70563;50.084;14.468;2023-06-10T04:52:00;28.63;;;19.40;;
81056;SDS011;70563;50.084;14.468;2023-06-10T04:54:25;29.85;;;19.63;;
81056;SDS011;70563;50.084;14.468;2023-06-10T04:56:51;29.33;;;19.65;;
81056;SDS011;70563;50.084;14.468;2023-06-10T04:59:16;29.13;;;18.23;;
81056;SDS011;70563;50.084;14.468;2023-06-10T05:01:42;32.95;;;21.90;;
81056;SDS011;70563;50.084;14.468;2023-06-10T05:04:08;34.10;;;19.58;;
81056;SDS011;70563;50.084;14.468;2023-06-10T05:06:33;26.92;;;19.33;;
81056;SDS011;70563;50.084;14.468;2023-06-10T05:08:59;29.27;;;19.23;;
81056;SDS011;70563;50.084;14.468;2023-06-10T05:11:24;29.77;;;19.42;;
81056;SDS011;70563;50.084;14.468;2023-06-10T05:13:50;25.48;;;17.17;;
81056;SDS011;70563;50.084;14.468;2023-06-10T05:16:15;23.25;;;16.35;;
81056;SDS011;70563;50.084;14.468;2023-06-10T05:18:41;13.10;;;11.43;;
81056;SDS011;70563;50.084;14.468;2023-06-10T05:21:06;15.60;;;9.30;;
81056;SDS011;70563;50.084;14.468;2023-06-10T05:23:32;9.13;;;8.07;;
81056;SDS011;70563;50.084;14.468;2023-06-10T05:25:58;8.15;;;6.22;;
81056;SDS011;70563;50.084;14.468;2023-06-10T05:28:24;8.65;;;6.07;;
81056;SDS011;70563;50.084;14.468;2023-06-10T05:30:50;7.65;;;5.53;;
81056;SDS011;70563;50.084;14.468;2023-06-10T05:33:16;6.45;;;5.85;;
81056;SDS011;70563;50.084;14.468;2023-06-10T05:35:41;6.35;;;5.40;;
81056;SDS011;70563;50.084;14.468;2023-06-10T05:38:07;7.47;;;5.28;;
81056;SDS011;70563;50.084;14.468;2023-06-10T05:40:32;5.55;;;5.05;;
81056;SDS011;70563;50.084;14.468;2023-06-10T05:42:57;5.72;;;4.63;;
81056;SDS011;70563;50.084;14.468;2023-06-10T05:45:23;5.35;;;4.55;;
81056;SDS011;70563;50.084;14.468;2023-06-10T05:47:48;6.10;;;4.60;;
81056;SDS011;70563;50.084;14.468;2023-06-10T05:50:13;6.40;;;5.55;;
81056;SDS011;70563;50.084;14.468;2023-06-10T05:52:39;6.57;;;5.13;;
81056;SDS011;70563;50.084;14.468;2023-06-10T05:55:07;6.70;;;5.53;;
81056;SDS011;70563;50.084;14.468;2023-06-10T05:57:33;10.20;;;5.65;;
81056;SDS011;70563;50.084;14.468;2023-06-10T05:59:59;8.70;;;5.82;;
81056;SDS011;70563;50.084;14.468;2023-06-10T06:02:24;6.30;;;5.43;;
81056;SDS011;70563;50.084;14.468;2023-06-10T06:04:49;6.38;;;5.20;;
81056;SDS011;70563;50.084;14.468;2023-06-10T06:07:15;8.25;;;4.95;;
81056;SDS011;70563;50.084;14.468;2023-06-10T06:09:40;6.03;;;5.13;;
81056;SDS011;70563;50.084;14.468;2023-06-10T06:12:06;5.28;;;4.78;;
81056;SDS011;70563;50.084;14.468;2023-06-10T06:14:32;6.55;;;5.50;;
81056;SDS011;70563;50.084;14.468;2023-06-10T06:17:01;6.07;;;5.47;;
81056;SDS011;70563;50.084;14.468;2023-06-10T06:19:27;16.58;;;6.15;;
81056;SDS011;70563;50.084;14.468;2023-06-10T06:21:52;6.20;;;4.95;;
81056;SDS011;70563;50.084;14.468;2023-06-10T06:24:18;6.68;;;5.22;;
81056;SDS011;70563;50.084;14.468;2023-06-10T06:26:43;7.07;;;4.68;;
81056;SDS011;70563;50.084;14.468;2023-06-10T06:29:08;5.80;;;4.82;;
81056;SDS011;70563;50.084;14.468;2023-06-10T06:31:34;6.53;;;5.32;;
81056;SDS011;70563;50.084;14.468;2023-06-10T06:33:59;5.95;;;5.30;;
81056;SDS011;70563;50.084;14.468;2023-06-10T06:36:24;5.28;;;4.70;;
81056;SDS011;70563;50.084;14.468;2023-06-10T06:38:50;5.25;;;4.63;;
81056;SDS011;70563;50.084;14.468;2023-06-10T06:41:15;6.18;;;4.28;;
81056;SDS011;70563;50.084;14.468;2023-06-10T06:43:40;6.45;;;5.05;;
81056;SDS011;70563;50.084;14.468;2023-06-10T06:46:07;10.38;;;5.47;;
81056;SDS011;70563;50.084;14.468;2023-06-10T06:48:32;8.20;;;4.85;;
81056;SDS011;70563;50.084;14.468;2023-06-10T06:50:58;8.10;;;5.15;;
81056;SDS011;70563;50.084;14.468;2023-06-10T06:53:23;11.07;;;5.43;;
81056;SDS011;70563;50.084;14.468;2023-06-10T06:55:48;9.48;;;5.10;;
81056;SDS011;70563;50.084;14.468;2023-06-10T06:58:14;5.38;;;4.75;;
81056;SDS011;70563;50.084;14.468;2023-06-10T07:00:39;6.45;;;5.45;;
81056;SDS011;70563;50.084;14.468;2023-06-10T07:03:05;7.95;;;4.80;;
81056;SDS011;70563;50.084;14.468;2023-06-10T07:05:30;6.03;;;4.85;;
81056;SDS011;70563;50.084;14.468;2023-06-10T07:07:56;6.88;;;5.10;;
81056;SDS011;70563;50.084;14.468;2023-06-10T07:10:22;9.02;;;5.50;;
81056;SDS011;70563;50.084;14.468;2023-06-10T07:12:51;7.18;;;5.15;;
81056;SDS011;70563;50.084;14.468;2023-06-10T07:15:16;7.68;;;4.80;;
81056;SDS011;70563;50.084;14.468;2023-06-10T07:17:43;8.05;;;5.55;;
81056;SDS011;70563;50.084;14.468;2023-06-10T07:20:08;6.03;;;5.43;;
81056;SDS011;70563;50.084;14.468;2023-06-10T07:22:34;9.48;;;5.32;;
81056;SDS011;70563;50.084;14.468;2023-06-10T07:24:59;9.20;;;5.75;;
81056;SDS011;70563;50.084;14.468;2023-06-10T07:27:25;9.90;;;5.80;;
81056;SDS011;70563;50.084;14.468;2023-06-10T07:29:51;12.63;;;5.28;;
81056;SDS011;70563;50.084;14.468;2023-06-10T07:32:16;6.43;;;5.38;;
81056;SDS011;70563;50.084;14.468;2023-06-10T07:34:42;8.85;;;4.97;;
81056;SDS011;70563;50.084;14.468;2023-06-10T07:37:07;7.20;;;5.28;;
81056;SDS011;70563;50.084;14.468;2023-06-10T07:39:33;6.03;;;5.43;;
81056;SDS011;70563;50.084;14.468;2023-06-10T07:41:59;8.38;;;5.32;;
81056;SDS011;70563;50.084;14.468;2023-06-10T07:44:25;5.22;;;4.72;;
81056;SDS011;70563;50.084;14.468;2023-06-10T07:46:50;7.18;;;5.50;;
81056;SDS011;70563;50.084;14.468;2023-06-10T07:49:15;9.18;;;6.32;;
81056;SDS011;70563;50.084;14.468;2023-06-10T07:51:41;7.93;;;5.72;;
81056;SDS011;70563;50.084;14.468;2023-06-10T07:54:06;8.55;;;5.90;;
81056;SDS011;70563;50.084;14.468;2023-06-10T07:56:32;7.22;;;6.47;;
81056;SDS011;70563;50.084;14.468;2023-06-10T07:58:57;7.90;;;5.68;;
81056;SDS011;70563;50.084;14.468;2023-06-10T08:01:22;6.90;;;6.20;;
81056;SDS011;70563;50.084;14.468;2023-06-10T08:03:49;7.30;;;6.60;;
81056;SDS011;70563;50.084;14.468;2023-06-10T08:06:14;9.40;;;7.20;;
81056;SDS011;70563;50.084;14.468;2023-06-10T08:08:42;6.50;;;5.53;;
81056;SDS011;70563;50.084;14.468;2023-06-10T08:11:08;7.82;;;6.22;;
81056;SDS011;70563;50.084;14.468;2023-06-10T08:13:36;8.18;;;6.18;;
81056;SDS011;70563;50.084;14.468;2023-06-10T08:16:01;9.23;;;6.80;;
81056;SDS011;70563;50.084;14.468;2023-06-10T08:18:26;8.50;;;6.07;;
81056;SDS011;70563;50.084;14.468;2023-06-10T08:20:52;7.30;;;5.88;;
81056;SDS011;70563;50.084;14.468;2023-06-10T08:23:17;8.65;;;6.55;;
81056;SDS011;70563;50.084;14.468;2023-06-10T08:25:44;8.70;;;5.68;;
81056;SDS011;70563;50.084;14.468;2023-06-10T08:28:10;7.85;;;6.32;;
81056;SDS011;70563;50.084;14.468;2023-06-10T08:30:35;12.50;;;7.53;;
81056;SDS011;70563;50.084;14.468;2023-06-10T08:33:00;9.70;;;6.75;;
81056;SDS011;70563;50.084;14.468;2023-06-10T08:35:26;9.25;;;6.78;;
81056;SDS011;70563;50.084;14.468;2023-06-10T08:37:51;12.15;;;7.00;;
81056;SDS011;70563;50.084;14.468;2023-06-10T08:40:16;9.15;;;6.43;;
81056;SDS011;70563;50.084;14.468;2023-06-10T08:42:45;9.02;;;6.68;;
81056;SDS011;70563;50.084;14.468;2023-06-10T08:45:18;8.77;;;7.20;;
81056;SDS011;70563;50.084;14.468;2023-06-10T08:47:46;10.23;;;7.70;;
81056;SDS011;70563;50.084;14.468;2023-06-10T08:50:16;9.75;;;6.90;;
81056;SDS011;70563;50.084;14.468;2023-06-10T08:52:43;10.02;;;8.75;;
81056;SDS011;70563;50.084;14.468;2023-06-10T08:57:40;11.38;;;7.60;;
81056;SDS011;70563;50.084;14.468;2023-06-10T09:00:07;12.30;;;8.00;;
81056;SDS011;70563;50.084;14.468;2023-06-10T09:02:33;11.98;;;8.63;;
81056;SDS011;70563;50.084;14.468;2023-06-10T09:05:00;9.25;;;8.18;;
81056;SDS011;70563;50.084;14.468;2023-06-10T09:07:26;9.93;;;7.88;;
81056;SDS011;70563;50.084;14.468;2023-06-10T09:09:51;15.23;;;8.85;;
81056;SDS011;70563;50.084;14.468;2023-06-10T09:12:18;11.02;;;7.82;;
81056;SDS011;70563;50.084;14.468;2023-06-10T09:14:44;10.50;;;8.20;;
81056;SDS011;70563;50.084;14.468;2023-06-10T09:17:09;11.20;;;8.50;;
81056;SDS011;70563;50.084;14.468;2023-06-10T09:19:35;11.27;;;7.72;;
81056;SDS011;70563;50.084;14.468;2023-06-10T09:22:03;8.65;;;7.85;;
81056;SDS011;70563;50.084;14.468;2023-06-10T09:24:28;11.25;;;8.40;;
81056;SDS011;70563;50.084;14.468;2023-06-10T09:27:01;11.65;;;8.65;;
81056;SDS011;70563;50.084;14.468;2023-06-10T09:29:28;9.95;;;8.70;;
81056;SDS011;70563;50.084;14.468;2023-06-10T09:31:54;11.15;;;8.95;;
81056;SDS011;70563;50.084;14.468;2023-06-10T09:34:20;12.85;;;8.85;;
81056;SDS011;70563;50.084;14.468;2023-06-10T09:36:49;9.60;;;8.55;;
81056;SDS011;70563;50.084;14.468;2023-06-10T09:39:16;10.38;;;8.75;;
81056;SDS011;70563;50.084;14.468;2023-06-10T09:41:42;9.93;;;8.02;;
81056;SDS011;70563;50.084;14.468;2023-06-10T09:44:15;11.45;;;8.55;;
81056;SDS011;70563;50.084;14.468;2023-06-10T09:46:42;10.20;;;8.02;;
81056;SDS011;70563;50.084;14.468;2023-06-10T09:49:10;12.07;;;9.35;;
81056;SDS011;70563;50.084;14.468;2023-06-10T09:51:35;12.85;;;9.45;;
81056;SDS011;70563;50.084;14.468;2023-06-10T09:54:04;13.23;;;10.60;;
81056;SDS011;70563;50.084;14.468;2023-06-10T09:56:33;11.32;;;8.90;;
81056;SDS011;70563;50.084;14.468;2023-06-10T09:59:02;11.30;;;8.13;;
81056;SDS011;70563;50.084;14.468;2023-06-10T10:01:30;10.63;;;9.25;;
81056;SDS011;70563;50.084;14.468;2023-06-10T10:03:56;10.63;;;9.07;;
81056;SDS011;70563;50.084;14.468;2023-06-10T10:06:22;11.60;;;8.55;;
81056;SDS011;70563;50.084;14.468;2023-06-10T10:08:48;10.98;;;8.65;;
81056;SDS011;70563;50.084;14.468;2023-06-10T10:11:16;9.60;;;7.63;;
81056;SDS011;70563;50.084;14.468;2023-06-10T10:13:42;9.68;;;7.72;;
81056;SDS011;70563;50.084;14.468;2023-06-10T10:16:11;9.18;;;8.27;;
81056;SDS011;70563;50.084;14.468;2023-06-10T10:21:11;11.80;;;9.27;;
81056;SDS011;70563;50.084;14.468;2023-06-10T10:23:44;12.95;;;8.00;;
81056;SDS011;70563;50.084;14.468;2023-06-10T10:26:12;7.85;;;6.75;;
81056;SDS011;70563;50.084;14.468;2023-06-10T10:28:42;11.57;;;7.00;;
81056;SDS011;70563;50.084;14.468;2023-06-10T10:31:16;6.95;;;6.18;;
81056;SDS011;70563;50.084;14.468;2023-06-10T10:33:59;7.75;;;5.95;;
81056;SDS011;70563;50.084;14.468;2023-06-10T10:36:27;8.98;;;6.25;;
81056;SDS011;70563;50.084;14.468;2023-06-10T10:38:53;6.35;;;5.60;;
81056;SDS011;70563;50.084;14.468;2023-06-10T10:41:19;7.30;;;5.82;;
81056;SDS011;70563;50.084;14.468;2023-06-10T10:43:46;8.32;;;6.00;;
81056;SDS011;70563;50.084;14.468;2023-06-10T10:46:16;7.85;;;5.65;;
81056;SDS011;70563;50.084;14.468;2023-06-10T10:48:42;5.95;;;5.05;;
81056;SDS011;70563;50.084;14.468;2023-06-10T10:51:09;5.97;;;5.43;;
81056;SDS011;70563;50.084;14.468;2023-06-10T10:53:38;7.57;;;5.68;;
81056;SDS011;70563;50.084;14.468;2023-06-10T10:56:23;8.35;;;4.88;;
81056;SDS011;70563;50.084;14.468;2023-06-10T10:59:02;9.00;;;5.10;;
81056;SDS011;70563;50.084;14.468;2023-06-10T11:01:39;5.50;;;5.00;;
81056;SDS011;70563;50.084;14.468;2023-06-10T11:04:11;7.10;;;4.90;;
81056;SDS011;70563;50.084;14.468;2023-06-10T11:06:36;6.70;;;5.15;;
81056;SDS011;70563;50.084;14.468;2023-06-10T11:09:24;8.15;;;6.07;;
81056;SDS011;70563;50.084;14.468;2023-06-10T11:11:52;5.68;;;5.00;;
81056;SDS011;70563;50.084;14.468;2023-06-10T11:14:30;8.90;;;5.60;;
81056;SDS011;70563;50.084;14.468;2023-06-10T11:16:58;7.65;;;5.40;;
81056;SDS011;70563;50.084;14.468;2023-06-10T11:19:33;7.43;;;5.78;;
81056;SDS011;70563;50.084;14.468;2023-06-10T11:22:00;9.43;;;5.70;;
81056;SDS011;70563;50.084;14.468;2023-06-10T11:24:28;6.78;;;6.07;;
81056;SDS011;70563;50.084;14.468;2023-06-10T11:26:54;10.15;;;6.35;;
81056;SDS011;70563;50.084;14.468;2023-06-10T11:29:20;9.88;;;5.85;;
81056;SDS011;70563;50.084;14.468;2023-06-10T11:31:49;6.57;;;5.63;;
81056;SDS011;70563;50.084;14.468;2023-06-10T11:34:15;10.20;;;5.60;;
81056;SDS011;70563;50.084;14.468;2023-06-10T11:36:48;6.53;;;5.88;;
81056;SDS011;70563;50.084;14.468;2023-06-10T11:39:14;7.80;;;6.25;;
81056;SDS011;70563;50.084;14.468;2023-06-10T11:41:39;11.90;;;6.47;;
81056;SDS011;70563;50.084;14.468;2023-06-10T11:46:35;6.85;;;5.78;;
81056;SDS011;70563;50.084;14.468;2023-06-10T11:49:00;8.60;;;6.05;;
81056;SDS011;70563;50.084;14.468;2023-06-10T11:51:32;7.15;;;5.93;;
81056;SDS011;70563;50.084;14.468;2023-06-10T11:54:14;8.55;;;5.68;;
81056;SDS011;70563;50.084;14.468;2023-06-10T11:56:41;9.05;;;6.47;;
81056;SDS011;70563;50.084;14.468;2023-06-10T11:59:07;8.23;;;6.60;;
81056;SDS011;70563;50.084;14.468;2023-06-10T12:01:33;6.60;;;5.90;;
81056;SDS011;70563;50.084;14.468;2023-06-10T12:04:01;9.27;;;5.78;;
81056;SDS011;70563;50.084;14.468;2023-06-10T12:09:05;7.80;;;5.78;;
81056;SDS011;70563;50.084;14.468;2023-06-10T12:11:32;8.32;;;5.00;;
81056;SDS011;70563;50.084;14.468;2023-06-10T12:13:58;5.93;;;5.32;;
81056;SDS011;70563;50.084;14.468;2023-06-10T12:16:23;7.22;;;6.00;;
81056;SDS011;70563;50.084;14.468;2023-06-10T12:18:48;6.43;;;5.47;;
81056;SDS011;70563;50.084;14.468;2023-06-10T12:21:23;6.18;;;5.57;;
81056;SDS011;70563;50.084;14.468;2023-06-10T12:24:08;8.73;;;4.97;;
81056;SDS011;70563;50.084;14.468;2023-06-10T12:29:01;6.80;;;5.47;;
81056;SDS011;70563;50.084;14.468;2023-06-10T12:31:27;6.25;;;5.50;;
81056;SDS011;70563;50.084;14.468;2023-06-10T12:34:07;5.90;;;5.30;;
81056;SDS011;70563;50.084;14.468;2023-06-10T12:36:34;5.90;;;5.35;;
81056;SDS011;70563;50.084;14.468;2023-06-10T12:39:03;7.13;;;5.90;;
81056;SDS011;70563;50.084;14.468;2023-06-10T12:41:28;6.00;;;5.38;;
81056;SDS011;70563;50.084;14.468;2023-06-10T12:43:54;5.40;;;4.90;;
81056;SDS011;70563;50.084;14.468;2023-06-10T12:46:19;7.35;;;4.88;;
81056;SDS011;70563;50.084;14.468;2023-06-10T12:48:51;5.78;;;5.07;;
81056;SDS011;70563;50.084;14.468;2023-06-10T12:51:16;7.57;;;5.13;;
81056;SDS011;70563;50.084;14.468;2023-06-10T12:53:42;9.40;;;5.72;;
81056;SDS011;70563;50.084;14.468;2023-06-10T12:56:08;8.00;;;5.00;;
81056;SDS011;70563;50.084;14.468;2023-06-10T12:58:34;7.03;;;5.05;;
81056;SDS011;70563;50.084;14.468;2023-06-10T13:00:59;6.80;;;4.97;;
81056;SDS011;70563;50.084;14.468;2023-06-10T13:03:24;6.50;;;4.88;;
81056;SDS011;70563;50.084;14.468;2023-06-10T13:05:50;10.48;;;5.47;;
81056;SDS011;70563;50.084;14.468;2023-06-10T13:08:16;7.95;;;5.50;;
81056;SDS011;70563;50.084;14.468;2023-06-10T13:10:41;16.63;;;5.22;;
81056;SDS011;70563;50.084;14.468;2023-06-10T13:13:07;7.75;;;5.10;;
81056;SDS011;70563;50.084;14.468;2023-06-10T13:15:34;7.05;;;5.40;;
81056;SDS011;70563;50.084;14.468;2023-06-10T13:18:03;7.75;;;5.80;;
81056;SDS011;70563;50.084;14.468;2023-06-10T13:20:29;5.70;;;5.05;;
81056;SDS011;70563;50.084;14.468;2023-06-10T13:22:55;6.13;;;5.10;;
81056;SDS011;70563;50.084;14.468;2023-06-10T13:25:21;6.50;;;5.25;;
81056;SDS011;70563;50.084;14.468;2023-06-10T13:27:46;6.53;;;5.03;;
81056;SDS011;70563;50.084;14.468;2023-06-10T13:30:12;5.38;;;4.50;;
81056;SDS011;70563;50.084;14.468;2023-06-10T13:32:37;6.28;;;4.88;;
81056;SDS011;70563;50.084;14.468;2023-06-10T13:35:03;7.95;;;5.20;;
81056;SDS011;70563;50.084;14.468;2023-06-10T13:37:29;5.32;;;4.82;;
81056;SDS011;70563;50.084;14.468;2023-06-10T13:39:54;5.32;;;4.82;;
81056;SDS011;70563;50.084;14.468;2023-06-10T13:42:20;7.53;;;5.65;;
81056;SDS011;70563;50.084;14.468;2023-06-10T13:44:46;7.03;;;5.65;;
81056;SDS011;70563;50.084;14.468;2023-06-10T13:47:14;8.77;;;5.78;;
81056;SDS011;70563;50.084;14.468;2023-06-10T13:49:40;7.20;;;5.80;;
81056;SDS011;70563;50.084;14.468;2023-06-10T13:52:05;8.38;;;5.88;;
81056;SDS011;70563;50.084;14.468;2023-06-10T13:54:32;7.55;;;6.03;;
81056;SDS011;70563;50.084;14.468;2023-06-10T13:56:57;6.60;;;5.25;;
81056;SDS011;70563;50.084;14.468;2023-06-10T13:59:23;8.50;;;5.50;;
81056;SDS011;70563;50.084;14.468;2023-06-10T14:01:48;9.73;;;6.30;;
81056;SDS011;70563;50.084;14.468;2023-06-10T14:04:13;8.18;;;5.85;;
81056;SDS011;70563;50.084;14.468;2023-06-10T14:06:39;6.97;;;5.55;;
81056;SDS011;70563;50.084;14.468;2023-06-10T14:09:04;9.23;;;5.28;;
81056;SDS011;70563;50.084;14.468;2023-06-10T14:11:29;9.18;;;6.38;;
81056;SDS011;70563;50.084;14.468;2023-06-10T14:13:55;6.53;;;5.78;;
81056;SDS011;70563;50.084;14.468;2023-06-10T14:16:26;10.75;;;6.00;;
81056;SDS011;70563;50.084;14.468;2023-06-10T14:18:51;8.23;;;5.70;;
81056;SDS011;70563;50.084;14.468;2023-06-10T14:21:17;7.55;;;5.45;;
81056;SDS011;70563;50.084;14.468;2023-06-10T14:23:42;12.27;;;6.57;;
81056;SDS011;70563;50.084;14.468;2023-06-10T14:26:08;11.20;;;6.25;;
81056;SDS011;70563;50.084;14.468;2023-06-10T14:28:34;9.32;;;4.97;;
81056;SDS011;70563;50.084;14.468;2023-06-10T14:31:00;7.40;;;5.70;;
81056;SDS011;70563;50.084;14.468;2023-06-10T14:33:25;8.60;;;5.10;;
81056;SDS011;70563;50.084;14.468;2023-06-10T14:35:51;7.90;;;5.05;;
81056;SDS011;70563;50.084;14.468;2023-06-10T14:38:16;6.57;;;5.88;;
81056;SDS011;70563;50.084;14.468;2023-06-10T14:40:41;11.75;;;6.30;;